createdAt,value
2018-12-12T00:02:09.844Z,11.53
2018-12-12T00:04:47.825Z,11.93
2018-12-12T00:07:35.418Z,10.57
2018-12-12T00:10:19.791Z,10.83
2018-12-12T00:13:01.770Z,11.23
2018-12-12T00:15:43.029Z,11.57
2018-12-12T00:18:24.494Z,10.93
2018-12-12T00:21:00.664Z,10.53
2018-12-12T00:23:36.423Z,10.43
2018-12-12T00:29:11.281Z,11.00
2018-12-12T00:31:51.118Z,10.67
2018-12-12T00:34:25.531Z,10.57
2018-12-12T00:37:01.985Z,10.37
2018-12-12T00:42:46.212Z,10.40
2018-12-12T00:45:24.191Z,10.90
2018-12-12T00:48:02.498Z,11.20
2018-12-12T00:50:39.202Z,11.90
2018-12-12T00:53:20.623Z,11.63
2018-12-12T00:55:55.342Z,11.37
2018-12-12T00:58:35.582Z,11.93
2018-12-12T01:01:13.746Z,11.40
2018-12-12T01:03:53.572Z,11.23
2018-12-12T01:06:31.452Z,11.60
2018-12-12T01:09:10.568Z,12.03
2018-12-12T01:12:08.071Z,11.87
2018-12-12T01:14:43.861Z,12.10
2018-12-12T01:17:24.050Z,12.23
2018-12-12T01:19:59.970Z,11.50
2018-12-12T01:22:35.379Z,11.40
2018-12-12T01:25:15.255Z,12.40
2018-12-12T01:27:53.015Z,11.93
2018-12-12T01:30:27.919Z,11.70
2018-12-12T01:33:05.558Z,11.27
2018-12-12T01:38:40.626Z,11.13
2018-12-12T01:41:18.938Z,11.60
2018-12-12T01:43:54.294Z,11.10
2018-12-12T01:46:29.952Z,11.60
2018-12-12T01:49:07.833Z,12.07
2018-12-12T01:51:48.389Z,11.57
2018-12-12T01:54:29.104Z,12.03
2018-12-12T01:57:09.530Z,11.50
2018-12-12T01:59:43.974Z,11.73
2018-12-12T02:02:19.388Z,11.77
2018-12-12T02:04:59.878Z,11.77
2018-12-12T02:07:34.623Z,12.37
2018-12-12T02:10:14.430Z,12.60
2018-12-12T02:13:11.679Z,13.07
2018-12-12T02:15:52.395Z,12.17
2018-12-12T02:18:38.938Z,12.70
2018-12-12T02:21:13.757Z,12.43
2018-12-12T02:23:50.657Z,12.20
2018-12-12T02:26:31.535Z,12.57
2018-12-12T02:32:08.177Z,12.37
2018-12-12T02:34:48.568Z,11.80
2018-12-12T02:37:29.666Z,11.77
2018-12-12T02:40:05.945Z,12.37
2018-12-12T02:42:40.583Z,12.00
2018-12-12T02:45:18.970Z,12.33
2018-12-12T02:47:55.003Z,12.73
2018-12-12T02:50:36.418Z,12.80
2018-12-12T02:53:13.152Z,12.80
2018-12-12T02:55:53.678Z,11.53
2018-12-12T02:58:28.107Z,12.13
2018-12-12T03:01:12.278Z,12.20
2018-12-12T03:12:52.114Z,12.03
2018-12-12T03:18:29.042Z,11.47
2018-12-12T03:21:03.505Z,11.70
2018-12-12T03:23:51.186Z,11.83
2018-12-12T03:26:33.887Z,11.70
2018-12-12T03:29:26.495Z,12.03
2018-12-12T03:32:06.828Z,11.10
2018-12-12T03:34:43.039Z,11.33
2018-12-12T03:40:14.763Z,11.20
2018-12-12T03:42:53.788Z,10.97
2018-12-12T03:45:28.832Z,12.43
2018-12-12T03:48:21.682Z,11.47
2018-12-12T03:50:56.130Z,11.33
2018-12-12T03:53:36.752Z,11.77
2018-12-12T03:56:12.583Z,12.00
2018-12-12T03:58:53.011Z,11.93
2018-12-12T04:01:28.260Z,12.33
2018-12-12T04:04:09.145Z,12.80
2018-12-12T04:06:48.403Z,11.73
2018-12-12T04:09:23.676Z,12.33
2018-12-12T04:11:58.209Z,12.70
2018-12-12T04:20:37.857Z,11.90
2018-12-12T04:23:12.665Z,12.20
2018-12-12T04:25:50.952Z,11.77
2018-12-12T04:28:42.198Z,11.93
2018-12-12T04:31:16.749Z,11.67
2018-12-12T04:36:58.103Z,11.97
2018-12-12T04:39:32.498Z,12.20
2018-12-12T04:42:11.339Z,11.40
2018-12-12T04:44:53.110Z,11.97
2018-12-12T04:47:30.741Z,12.40
2018-12-12T04:50:15.170Z,12.40
2018-12-12T04:52:56.153Z,12.40
2018-12-12T04:58:35.294Z,13.17
2018-12-12T05:01:16.141Z,13.60
2018-12-12T05:04:07.812Z,13.77
2018-12-12T05:09:45.017Z,14.40
2018-12-12T05:12:25.519Z,15.47
2018-12-12T05:15:20.466Z,15.77
2018-12-12T05:18:15.253Z,15.20
2018-12-12T05:20:53.264Z,16.20
2018-12-12T05:23:33.681Z,16.03
2018-12-12T05:29:05.266Z,17.20
2018-12-12T05:34:41.247Z,17.53
2018-12-12T05:37:26.580Z,18.07
2018-12-12T05:40:07.975Z,20.10
2018-12-12T05:42:48.618Z,18.67
2018-12-12T05:45:38.038Z,18.27
2018-12-12T05:48:18.318Z,17.53
2018-12-12T05:57:08.269Z,18.03
2018-12-12T05:59:55.342Z,18.90
2018-12-12T06:02:42.378Z,20.23
2018-12-12T06:05:39.275Z,20.93
2018-12-12T06:08:17.173Z,20.03
2018-12-12T06:11:15.066Z,19.20
2018-12-12T06:13:49.471Z,23.23
2018-12-12T06:16:24.049Z,21.40
2018-12-12T06:19:13.114Z,22.53
2018-12-12T06:21:49.778Z,22.83
2018-12-12T06:24:24.193Z,23.87
2018-12-12T06:27:02.009Z,26.60
2018-12-12T06:29:38.705Z,23.43
2018-12-12T06:32:19.421Z,28.30
2018-12-12T06:34:59.644Z,30.03
2018-12-12T06:37:40.310Z,26.50
2018-12-12T06:40:16.224Z,28.03
2018-12-12T06:43:01.704Z,24.20
2018-12-12T06:45:41.264Z,21.73
2018-12-12T06:48:22.725Z,21.23
2018-12-12T06:54:00.297Z,20.90
2018-12-12T06:56:34.917Z,21.47
2018-12-12T06:59:22.673Z,21.70
2018-12-12T07:01:57.671Z,21.37
2018-12-12T07:07:36.770Z,22.67
2018-12-12T07:10:17.752Z,22.27
2018-12-12T07:13:04.525Z,21.47
2018-12-12T07:15:39.566Z,21.97
2018-12-12T07:18:19.279Z,21.50
2018-12-12T07:21:06.825Z,22.30
2018-12-12T07:23:41.958Z,22.47
2018-12-12T07:29:35.992Z,21.63
2018-12-12T07:32:10.398Z,23.10
2018-12-12T07:34:51.053Z,22.13
2018-12-12T07:37:27.374Z,22.67
2018-12-12T07:43:10.741Z,23.30
2018-12-12T07:45:45.166Z,22.37
2018-12-12T07:48:19.903Z,22.00
2018-12-12T07:51:16.070Z,22.93
2018-12-12T07:53:54.128Z,23.50
2018-12-12T07:56:34.355Z,23.87
2018-12-12T07:59:09.106Z,23.37
2018-12-12T08:04:45.788Z,23.67
2018-12-12T08:10:21.053Z,24.67
2018-12-12T08:12:55.764Z,23.50
2018-12-12T08:15:30.449Z,25.33
2018-12-12T08:18:05.533Z,23.63
2018-12-12T08:20:40.722Z,23.70
2018-12-12T08:23:18.314Z,24.43
2018-12-12T08:25:53.045Z,28.00
2018-12-12T08:28:28.095Z,26.37
2018-12-12T08:31:03.093Z,25.73
2018-12-12T08:33:39.023Z,26.73
2018-12-12T08:36:15.354Z,26.73
2018-12-12T08:38:50.203Z,24.73
2018-12-12T08:41:24.785Z,25.53
2018-12-12T08:43:59.169Z,24.90
2018-12-12T08:46:34.044Z,24.90
2018-12-12T08:49:08.913Z,23.63
2018-12-12T08:51:43.257Z,23.80
2018-12-12T08:54:18.161Z,24.37
2018-12-12T08:56:53.016Z,24.10
2018-12-12T08:59:29.093Z,24.10
2018-12-12T09:02:05.482Z,25.20
2018-12-12T09:04:40.639Z,24.40
2018-12-12T09:07:15.258Z,25.37
2018-12-12T09:09:49.650Z,25.13
2018-12-12T09:12:24.119Z,24.83
2018-12-12T09:15:00.383Z,24.53
2018-12-12T09:17:34.857Z,24.20
2018-12-12T09:20:09.871Z,24.23
2018-12-12T09:22:44.697Z,23.97
2018-12-12T09:25:19.088Z,23.93
2018-12-12T09:27:54.177Z,24.63
2018-12-12T09:30:30.760Z,24.87
2018-12-12T09:33:06.605Z,24.27
2018-12-12T09:35:41.055Z,24.17
2018-12-12T09:38:15.676Z,23.77
2018-12-12T09:40:51.214Z,24.03
2018-12-12T09:43:32.846Z,22.73
2018-12-12T09:49:04.849Z,23.03
2018-12-12T09:51:39.795Z,22.50
2018-12-12T09:54:16.347Z,23.60
2018-12-12T09:56:51.214Z,23.70
2018-12-12T09:59:25.612Z,22.47
2018-12-12T10:02:00.487Z,24.70
2018-12-12T10:04:36.173Z,23.77
2018-12-12T10:07:14.869Z,23.57
2018-12-12T10:13:00.802Z,23.60
2018-12-12T10:15:35.354Z,24.20
2018-12-12T10:18:13.491Z,24.10
2018-12-12T10:26:46.369Z,24.97
2018-12-12T10:29:21.078Z,26.37
2018-12-12T10:31:56.426Z,25.40
2018-12-12T10:34:32.243Z,24.27
2018-12-12T10:37:08.890Z,23.20
2018-12-12T10:39:47.399Z,23.50
2018-12-12T10:42:33.782Z,24.47
2018-12-12T10:48:08.237Z,24.40
2018-12-12T10:53:46.306Z,25.27
2018-12-12T10:56:28.056Z,23.47
2018-12-12T10:59:25.003Z,25.67
2018-12-12T11:04:55.510Z,22.57
2018-12-12T11:07:29.958Z,24.90
2018-12-12T11:10:11.172Z,24.97
2018-12-12T11:12:47.949Z,24.20
2018-12-12T11:15:23.346Z,25.30
2018-12-12T11:18:04.526Z,24.63
2018-12-12T11:20:45.930Z,24.07
2018-12-12T11:23:21.215Z,24.50
2018-12-12T11:25:55.977Z,25.87
2018-12-12T11:28:30.534Z,24.43
2018-12-12T11:31:05.481Z,24.07
2018-12-12T11:33:40.186Z,24.20
2018-12-12T11:36:14.690Z,23.47
2018-12-12T11:38:49.397Z,23.73
2018-12-12T11:41:24.128Z,25.63
2018-12-12T11:43:58.669Z,23.10
2018-12-12T11:46:33.300Z,23.87
2018-12-12T11:49:08.223Z,24.63
2018-12-12T11:51:43.014Z,24.53
2018-12-12T11:57:16.981Z,25.47
2018-12-12T11:59:57.009Z,24.20
2018-12-12T12:02:35.630Z,25.53
2018-12-12T12:05:09.022Z,26.37
2018-12-12T12:10:46.366Z,26.93
2018-12-12T12:13:24.909Z,26.20
2018-12-12T12:16:14.121Z,25.83
2018-12-12T12:18:52.177Z,26.23
2018-12-12T12:21:44.859Z,25.73
2018-12-12T12:24:29.685Z,24.80
2018-12-12T12:30:00.586Z,25.13
2018-12-12T12:32:35.954Z,24.40
2018-12-12T12:35:10.958Z,25.53
2018-12-12T12:37:45.475Z,25.17
2018-12-12T12:40:20.265Z,25.43
2018-12-12T12:42:55.254Z,25.10
2018-12-12T12:45:30.014Z,25.17
2018-12-12T12:48:05.558Z,24.20
2018-12-12T12:50:40.787Z,25.50
2018-12-12T12:53:15.277Z,24.67
2018-12-12T12:55:50.035Z,24.63
2018-12-12T13:01:20.469Z,24.07
2018-12-12T13:03:55.535Z,25.07
2018-12-12T13:06:30.691Z,24.27
2018-12-12T13:09:08.074Z,24.83
2018-12-12T13:11:43.967Z,23.80
2018-12-12T13:14:19.210Z,24.67
2018-12-12T13:16:53.653Z,24.40
2018-12-12T13:19:28.037Z,22.47
2018-12-12T13:22:02.955Z,24.07
2018-12-12T13:24:37.563Z,25.40
2018-12-12T13:27:34.860Z,24.90
2018-12-12T13:30:10.545Z,25.77
2018-12-12T13:32:45.130Z,26.00
2018-12-12T13:35:20.021Z,24.13
2018-12-12T13:37:54.321Z,24.00
2018-12-12T13:40:29.161Z,24.17
2018-12-12T13:43:04.005Z,24.03
2018-12-12T13:45:38.764Z,24.40
2018-12-12T13:48:13.377Z,23.93
2018-12-12T13:50:47.906Z,23.23
2018-12-12T13:53:23.214Z,24.23
2018-12-12T13:55:58.050Z,23.10
2018-12-12T13:58:33.222Z,23.90
2018-12-12T14:01:07.550Z,24.47
2018-12-12T14:03:42.270Z,23.90
2018-12-12T14:06:16.762Z,24.23
2018-12-12T14:08:51.306Z,24.37
2018-12-12T14:11:26.133Z,25.53
2018-12-12T14:14:00.498Z,25.13
2018-12-12T14:16:35.741Z,25.60
2018-12-12T14:19:10.606Z,24.80
2018-12-12T14:21:45.107Z,25.50
2018-12-12T14:24:19.798Z,25.33
2018-12-12T14:26:54.190Z,25.10
2018-12-12T14:29:28.611Z,24.60
2018-12-12T14:32:02.913Z,23.97
2018-12-12T14:34:37.397Z,26.13
2018-12-12T14:39:50.299Z,25.50
2018-12-12T14:42:25.174Z,25.73
2018-12-12T14:44:59.973Z,24.93
2018-12-12T14:47:34.320Z,24.20
2018-12-12T14:50:09.369Z,24.87
2018-12-12T14:52:44.020Z,25.30
2018-12-12T14:55:18.574Z,25.37
2018-12-12T14:57:53.390Z,23.73
2018-12-12T15:00:28.645Z,23.50
2018-12-12T15:03:03.277Z,23.93
2018-12-12T15:05:38.170Z,23.83
2018-12-12T15:08:13.000Z,23.60
2018-12-12T15:10:47.945Z,23.23
2018-12-12T15:13:22.897Z,24.40
2018-12-12T15:16:00.820Z,24.50
2018-12-12T15:18:35.798Z,23.70
2018-12-12T15:21:10.796Z,24.23
2018-12-12T15:23:45.730Z,23.67
2018-12-12T15:26:20.051Z,24.00
2018-12-12T15:28:54.976Z,22.27
2018-12-12T15:31:29.666Z,23.70
2018-12-12T15:34:04.518Z,22.83
2018-12-12T15:36:45.386Z,23.00
2018-12-12T15:39:20.379Z,23.10
2018-12-12T15:41:55.073Z,22.77
2018-12-12T15:44:29.906Z,21.67
2018-12-12T15:47:04.957Z,21.67
2018-12-12T15:49:39.373Z,21.77
2018-12-12T15:52:24.132Z,22.07
2018-12-12T15:54:58.884Z,21.50
2018-12-12T15:57:35.502Z,22.07
2018-12-12T16:00:10.962Z,21.70
2018-12-12T16:02:46.118Z,22.03
2018-12-12T16:05:22.577Z,22.73
2018-12-12T16:07:57.331Z,20.70
2018-12-12T16:10:31.644Z,22.13
2018-12-12T16:13:06.433Z,21.80
2018-12-12T16:15:41.435Z,21.77
2018-12-12T16:18:18.946Z,22.40
2018-12-12T16:20:54.873Z,21.30
2018-12-12T16:23:29.463Z,22.17
2018-12-12T16:26:09.641Z,21.50
2018-12-12T16:28:44.237Z,21.33
2018-12-12T16:31:19.119Z,21.70
2018-12-12T16:33:53.612Z,23.00
2018-12-12T16:36:28.867Z,22.30
2018-12-12T16:39:16.129Z,22.87
2018-12-12T16:41:54.180Z,21.57
2018-12-12T16:44:36.218Z,22.60
2018-12-12T16:50:16.343Z,22.50
2018-12-12T16:53:04.634Z,23.97
2018-12-12T16:55:55.227Z,24.53
2018-12-12T16:58:32.035Z,23.80
2018-12-12T17:01:19.131Z,22.53
2018-12-12T17:04:00.206Z,23.43
2018-12-12T17:06:46.588Z,22.97
2018-12-12T17:09:20.892Z,23.47
2018-12-12T17:11:56.372Z,23.17
2018-12-12T17:14:30.905Z,23.50
2018-12-12T17:17:05.905Z,23.47
2018-12-12T17:19:40.513Z,23.80
2018-12-12T17:22:15.742Z,22.70
2018-12-12T17:24:50.721Z,20.03
2018-12-12T17:27:26.533Z,19.97
2018-12-12T17:30:01.315Z,18.07
2018-12-12T17:32:36.447Z,17.23
2018-12-12T17:35:11.865Z,15.80
2018-12-12T17:37:47.411Z,13.53
2018-12-12T17:40:21.782Z,12.67
2018-12-12T17:42:56.750Z,12.60
2018-12-12T17:45:31.062Z,12.63
2018-12-12T17:48:05.947Z,12.27
2018-12-12T17:50:40.444Z,12.50
2018-12-12T17:53:14.883Z,12.47
2018-12-12T17:55:49.710Z,13.33
2018-12-12T17:58:25.752Z,12.07
2018-12-12T18:01:01.495Z,12.03
2018-12-12T18:03:36.645Z,12.63
2018-12-12T18:06:16.726Z,12.57
2018-12-12T18:08:51.319Z,11.50
2018-12-12T18:11:26.315Z,11.63
2018-12-12T18:14:01.218Z,11.13
2018-12-12T18:16:36.704Z,10.90
2018-12-12T18:19:11.278Z,10.40
2018-12-12T18:21:46.439Z,11.50
2018-12-12T18:24:20.950Z,11.33
2018-12-12T18:26:56.256Z,11.40
2018-12-12T18:29:30.675Z,11.00
2018-12-12T18:32:06.041Z,11.23
2018-12-12T18:34:40.591Z,11.40
2018-12-12T18:37:15.523Z,11.47
2018-12-12T18:39:51.639Z,10.80
2018-12-12T18:42:26.502Z,10.20
2018-12-12T18:45:01.616Z,10.67
2018-12-12T18:47:38.705Z,11.13
2018-12-12T18:50:14.125Z,10.70
2018-12-12T18:55:35.814Z,11.17
2018-12-12T18:58:11.079Z,10.77
2018-12-12T19:00:46.762Z,10.47
2018-12-12T19:03:22.215Z,10.43
2018-12-12T19:05:59.401Z,10.57
2018-12-12T19:08:44.344Z,9.87
2018-12-12T19:11:21.795Z,10.80
2018-12-12T19:13:59.348Z,13.17
2018-12-12T19:16:36.000Z,12.47
2018-12-12T19:19:12.616Z,11.93
2018-12-12T19:21:48.832Z,11.03
2018-12-12T19:24:24.197Z,12.00
2018-12-12T19:27:00.290Z,12.50
2018-12-12T19:29:35.538Z,13.20
2018-12-12T19:32:10.717Z,11.80
2018-12-12T19:34:49.885Z,12.17
2018-12-12T19:37:25.776Z,11.57
2018-12-12T19:40:01.787Z,12.50
2018-12-12T19:42:36.742Z,11.70
2018-12-12T19:45:11.073Z,13.40
2018-12-12T19:47:45.724Z,12.80
2018-12-12T19:50:20.702Z,11.73
2018-12-12T19:52:55.252Z,11.80
2018-12-12T19:55:30.797Z,11.83
2018-12-12T19:58:06.037Z,11.43
2018-12-12T20:00:41.130Z,12.10
2018-12-12T20:03:16.064Z,12.67
2018-12-12T20:05:51.422Z,11.87
2018-12-12T20:08:26.854Z,12.73
2018-12-12T20:11:01.770Z,11.73
2018-12-12T20:13:36.371Z,11.63
2018-12-12T20:16:10.982Z,12.40
2018-12-12T20:18:45.747Z,12.63
2018-12-12T20:21:20.117Z,13.20
2018-12-12T20:23:55.043Z,14.00
2018-12-12T20:26:30.309Z,12.93
2018-12-12T20:29:05.448Z,13.13
2018-12-12T20:31:39.770Z,14.10
2018-12-12T20:34:14.181Z,13.33
2018-12-12T20:36:48.554Z,12.93
2018-12-12T20:39:23.386Z,13.30
2018-12-12T20:41:57.656Z,13.47
2018-12-12T20:44:31.957Z,13.80
2018-12-12T20:47:06.305Z,14.33
2018-12-12T20:49:40.725Z,14.10
2018-12-12T20:52:15.923Z,13.80
2018-12-12T20:54:50.650Z,14.23
2018-12-12T20:57:25.438Z,14.77
2018-12-12T21:00:00.197Z,14.10
2018-12-12T21:02:35.782Z,14.03
2018-12-12T21:05:10.634Z,13.97
2018-12-12T21:07:45.278Z,13.27
2018-12-12T21:10:20.514Z,13.50
2018-12-12T21:12:55.609Z,12.70
2018-12-12T21:15:30.085Z,13.73
2018-12-12T21:18:05.237Z,13.43
2018-12-12T21:20:39.782Z,13.33
2018-12-12T21:23:14.190Z,14.17
2018-12-12T21:25:50.071Z,14.17
2018-12-12T21:28:24.858Z,14.47
2018-12-12T21:33:58.969Z,13.63
2018-12-12T21:36:34.010Z,14.67
2018-12-12T21:39:09.316Z,14.30
2018-12-12T21:41:44.174Z,14.10
2018-12-12T21:44:19.044Z,14.47
2018-12-12T21:46:53.345Z,14.20
2018-12-12T21:49:28.513Z,13.63
2018-12-12T21:54:59.859Z,14.47
2018-12-12T21:57:34.481Z,14.63
2018-12-12T22:00:15.581Z,14.63
2018-12-12T22:02:50.465Z,14.93
2018-12-12T22:05:25.142Z,15.03
2018-12-12T22:07:59.733Z,15.37
2018-12-12T22:10:34.293Z,16.50
2018-12-12T22:13:09.500Z,16.23
2018-12-12T22:15:43.945Z,16.37
2018-12-12T22:18:18.374Z,16.37
2018-12-12T22:20:55.925Z,16.57
2018-12-12T22:23:30.447Z,16.37
2018-12-12T22:26:05.255Z,16.30
2018-12-12T22:28:39.641Z,16.73
2018-12-12T22:31:14.061Z,16.73
2018-12-12T22:33:48.794Z,16.97
2018-12-12T22:36:23.377Z,17.47
2018-12-12T22:38:59.147Z,17.40
2018-12-12T22:41:37.926Z,17.00
2018-12-12T22:44:12.897Z,16.87
2018-12-12T22:46:47.562Z,17.23
2018-12-12T22:49:22.295Z,17.77
2018-12-12T22:51:56.859Z,17.03
2018-12-12T22:54:31.270Z,16.97
2018-12-12T22:57:05.694Z,17.47
2018-12-12T22:59:40.849Z,17.53
2018-12-12T23:02:15.549Z,17.70
2018-12-12T23:04:50.462Z,18.17
2018-12-12T23:10:18.574Z,18.47
2018-12-12T23:12:52.935Z,18.97
2018-12-12T23:15:27.361Z,17.33
2018-12-12T23:18:02.808Z,18.13
2018-12-12T23:20:37.596Z,17.97
2018-12-12T23:23:12.698Z,18.03
2018-12-12T23:25:47.670Z,18.20
2018-12-12T23:28:22.014Z,16.80
2018-12-12T23:30:57.126Z,17.33
2018-12-12T23:33:31.778Z,18.17
2018-12-12T23:36:06.561Z,18.57
2018-12-12T23:38:57.782Z,17.67
2018-12-12T23:41:32.178Z,18.43
2018-12-12T23:44:06.859Z,17.37
2018-12-12T23:46:41.709Z,17.10
2018-12-12T23:49:16.234Z,18.63
2018-12-12T23:51:51.557Z,17.37
2018-12-12T23:54:26.193Z,17.63
2018-12-12T23:57:00.986Z,17.97
2018-12-12T23:59:35.630Z,16.83
